createdAt,value
2018-02-18T00:04:39.406Z,8.00
2018-02-18T00:10:44.842Z,9.73
2018-02-18T00:16:49.501Z,13.43
2018-02-18T00:22:54.115Z,5.40
2018-02-18T00:28:58.761Z,10.63
2018-02-18T00:35:03.277Z,10.20
2018-02-18T00:41:07.916Z,12.17
2018-02-18T00:47:12.398Z,10.07
2018-02-18T00:53:17.008Z,9.03
2018-02-18T00:59:22.482Z,9.33
2018-02-18T01:05:26.955Z,5.10
2018-02-18T01:11:31.998Z,15.73
2018-02-18T01:17:36.471Z,9.40
2018-02-18T01:23:41.749Z,12.03
2018-02-18T01:29:46.359Z,9.70
2018-02-18T01:35:52.199Z,6.93
2018-02-18T01:41:56.791Z,8.80
2018-02-18T01:48:01.605Z,10.70
2018-02-18T01:54:06.085Z,12.23
2018-02-18T02:00:10.875Z,7.00
2018-02-18T02:06:15.603Z,11.63
2018-02-18T02:12:20.559Z,10.43
2018-02-18T02:18:25.368Z,7.23
2018-02-18T02:24:30.684Z,12.10
2018-02-18T02:30:35.324Z,4.90
2018-02-18T02:36:39.820Z,5.90
2018-02-18T02:42:45.109Z,5.63
2018-02-18T02:48:49.734Z,8.47
2018-02-18T02:54:54.397Z,7.60
2018-02-18T03:00:58.881Z,9.43
2018-02-18T03:07:03.420Z,8.67
2018-02-18T03:13:07.984Z,7.80
2018-02-18T03:19:12.584Z,10.57
2018-02-18T03:25:17.970Z,7.00
2018-02-18T03:31:22.644Z,7.20
2018-02-18T03:37:27.126Z,7.53
2018-02-18T03:43:31.640Z,7.93
2018-02-18T03:49:36.188Z,6.10
2018-02-18T03:55:40.655Z,2.93
2018-02-18T04:01:45.237Z,9.03
2018-02-18T04:07:50.193Z,11.37
2018-02-18T04:13:55.262Z,20.93
2018-02-18T04:19:59.761Z,13.87
2018-02-18T04:26:04.241Z,12.60
2018-02-18T04:32:08.727Z,11.80
2018-02-18T04:38:14.055Z,12.70
2018-02-18T04:44:18.837Z,13.10
2018-02-18T04:50:23.597Z,10.93
2018-02-18T04:56:28.182Z,16.33
2018-02-18T05:02:32.691Z,16.10
2018-02-18T05:08:37.452Z,16.33
2018-02-18T05:14:41.971Z,12.60
2018-02-18T05:20:46.495Z,16.10
2018-02-18T05:26:51.747Z,16.50
2018-02-18T05:32:56.510Z,17.97
2018-02-18T05:39:01.135Z,16.50
2018-02-18T05:45:05.743Z,16.23
2018-02-18T05:51:11.546Z,23.73
2018-02-18T05:57:16.117Z,15.17
2018-02-18T06:03:21.262Z,19.63
2018-02-18T06:09:25.919Z,18.27
2018-02-18T06:15:30.712Z,19.40
2018-02-18T06:21:36.170Z,25.93
2018-02-18T06:27:40.754Z,18.27
2018-02-18T06:33:45.263Z,18.27
2018-02-18T06:39:50.797Z,17.63
2018-02-18T06:58:55.355Z,16.93
2018-02-18T07:04:59.892Z,12.60
2018-02-18T07:11:05.216Z,23.13
2018-02-18T07:17:09.914Z,5.97
2018-02-18T07:23:14.408Z,14.50
2018-02-18T07:29:19.113Z,12.73
2018-02-18T07:35:23.749Z,12.33
2018-02-18T07:41:28.255Z,15.80
2018-02-18T07:47:32.887Z,19.57
2018-02-18T07:53:38.262Z,23.70
2018-02-18T07:59:42.798Z,19.37
2018-02-18T08:05:47.346Z,32.27
2018-02-18T08:11:53.756Z,20.57
2018-02-18T08:17:59.050Z,29.57
2018-02-18T08:24:04.347Z,25.10
2018-02-18T08:30:10.772Z,21.60
2018-02-18T08:36:15.272Z,26.63
2018-02-18T08:42:19.985Z,28.57
2018-02-18T08:48:24.524Z,27.57
2018-02-18T08:54:29.024Z,19.00
2018-02-18T09:00:33.761Z,20.73
2018-02-18T09:06:38.240Z,20.10
2018-02-18T09:12:43.570Z,23.13
2018-02-18T09:18:48.857Z,21.27
2018-02-18T09:24:53.761Z,26.57
2018-02-18T09:30:58.685Z,29.40
2018-02-18T09:37:03.477Z,20.57
2018-02-18T09:43:07.979Z,41.07
2018-02-18T09:49:13.238Z,20.57
2018-02-18T09:55:17.760Z,22.40
2018-02-18T10:01:22.575Z,26.53
2018-02-18T10:07:27.051Z,14.43
2018-02-18T10:13:31.533Z,17.60
2018-02-18T10:19:36.078Z,12.00
2018-02-18T10:25:41.468Z,8.90
2018-02-18T10:31:46.986Z,15.63
2018-02-18T10:37:51.595Z,15.10
2018-02-18T10:43:57.029Z,11.90
2018-02-18T10:50:03.013Z,16.07
2018-02-18T10:56:07.485Z,10.13
2018-02-18T11:02:12.265Z,14.90
2018-02-18T11:08:16.765Z,16.30
2018-02-18T11:14:22.004Z,16.70
2018-02-18T11:20:26.568Z,14.67
2018-02-18T11:26:31.053Z,15.80
2018-02-18T11:32:35.606Z,10.97
2018-02-18T11:38:40.184Z,20.20
2018-02-18T11:44:44.992Z,13.93
2018-02-18T11:50:50.504Z,19.43
2018-02-18T11:56:55.951Z,17.37
2018-02-18T12:03:00.469Z,10.97
2018-02-18T12:09:05.767Z,14.13
2018-02-18T12:15:10.558Z,13.03
2018-02-18T12:21:15.075Z,13.00
2018-02-18T12:27:19.707Z,17.50
2018-02-18T12:33:24.849Z,12.47
2018-02-18T12:39:29.323Z,13.60
2018-02-18T12:45:33.821Z,12.63
2018-02-18T12:51:38.289Z,11.27
2018-02-18T12:57:42.844Z,11.53
2018-02-18T13:03:48.201Z,12.20
2018-02-18T13:09:54.657Z,15.40
2018-02-18T13:15:59.258Z,12.23
2018-02-18T13:22:03.818Z,10.87
2018-02-18T13:28:08.320Z,14.07
2018-02-18T13:34:12.799Z,7.23
2018-02-18T13:40:17.271Z,9.90
2018-02-18T13:46:21.998Z,7.70
2018-02-18T13:52:26.474Z,10.60
2018-02-18T13:58:31.120Z,10.23
2018-02-18T14:04:35.619Z,17.20
2018-02-18T14:10:40.195Z,8.10
2018-02-18T14:16:44.967Z,9.13
2018-02-18T14:22:51.305Z,10.20
2018-02-18T14:28:55.895Z,9.30
2018-02-18T14:35:00.398Z,8.37
2018-02-18T14:41:05.641Z,10.80
2018-02-18T14:47:28.000Z,10.30
2018-02-18T14:53:50.280Z,13.20
2018-02-18T14:59:55.108Z,13.87
2018-02-18T15:05:59.753Z,15.03
2018-02-18T15:12:04.296Z,12.23
2018-02-18T15:18:09.691Z,16.13
2018-02-18T15:24:14.201Z,11.80
2018-02-18T15:30:19.654Z,10.53
2018-02-18T15:36:24.167Z,11.43
2018-02-18T15:42:28.647Z,14.07
2018-02-18T15:48:33.985Z,13.43
2018-02-18T15:54:38.503Z,12.13
2018-02-18T16:00:42.999Z,12.63
2018-02-18T16:06:48.302Z,13.13
2018-02-18T16:12:52.936Z,18.63
2018-02-18T16:18:57.446Z,13.67
2018-02-18T16:25:03.419Z,18.00
2018-02-18T16:31:07.883Z,15.53
2018-02-18T16:37:12.419Z,14.13
2018-02-18T16:43:16.988Z,18.30
2018-02-18T16:49:22.055Z,16.43
2018-02-18T16:55:26.714Z,19.50
2018-02-18T17:01:31.197Z,17.63
2018-02-18T17:07:35.739Z,15.20
2018-02-18T17:13:40.344Z,18.37
2018-02-18T17:19:44.989Z,18.03
2018-02-18T17:25:49.453Z,25.27
2018-02-18T17:31:54.228Z,16.77
2018-02-18T17:37:58.702Z,16.03
2018-02-18T17:44:03.206Z,19.00
2018-02-18T17:50:07.855Z,15.23
2018-02-18T17:56:12.444Z,18.63
2018-02-18T18:02:17.718Z,21.47
2018-02-18T18:08:22.419Z,16.53
2018-02-18T18:14:26.886Z,19.90
2018-02-18T18:20:31.487Z,18.70
2018-02-18T18:26:36.080Z,25.10
2018-02-18T18:32:41.827Z,21.53
2018-02-18T18:38:46.308Z,21.33
2018-02-18T18:44:51.011Z,21.07
2018-02-18T18:50:55.528Z,23.20
2018-02-18T18:57:00.780Z,18.33
2018-02-18T19:03:05.315Z,20.10
2018-02-18T19:09:09.912Z,24.33
2018-02-18T19:15:14.755Z,24.53
2018-02-18T19:21:19.411Z,31.63
2018-02-18T19:27:23.970Z,25.73
2018-02-18T19:33:28.469Z,23.53
2018-02-18T19:39:32.949Z,22.77
2018-02-18T19:45:37.453Z,22.30
2018-02-18T19:51:41.960Z,23.70
2018-02-18T19:57:46.431Z,26.17
2018-02-18T20:03:50.950Z,28.27
2018-02-18T20:09:55.461Z,28.73
2018-02-18T20:16:00.737Z,27.60
2018-02-18T20:22:05.199Z,23.93
2018-02-18T20:28:09.733Z,19.40
2018-02-18T20:34:14.264Z,24.33
2018-02-18T20:40:19.056Z,24.57
2018-02-18T20:46:23.756Z,21.93
2018-02-18T20:52:29.367Z,26.30
2018-02-18T20:58:34.916Z,29.70
2018-02-18T21:04:39.582Z,20.57
2018-02-18T21:10:44.195Z,22.43
2018-02-18T21:16:48.824Z,23.97
2018-02-18T21:22:54.384Z,26.87
2018-02-18T21:28:58.939Z,24.30
2018-02-18T21:35:03.426Z,30.03
2018-02-18T21:41:07.960Z,28.33
2018-02-18T21:47:13.207Z,25.20
2018-02-18T21:53:17.681Z,24.23
2018-02-18T21:59:22.202Z,34.10
2018-02-18T22:05:27.431Z,33.37
2018-02-18T22:11:31.972Z,25.20
2018-02-18T22:17:36.589Z,28.60
2018-02-18T22:23:41.117Z,23.80
2018-02-18T22:29:45.615Z,25.43
2018-02-18T22:35:50.877Z,33.20
2018-02-18T22:41:55.464Z,36.63
2018-02-18T22:48:00.031Z,33.07
2018-02-18T22:54:04.524Z,27.30
2018-02-18T23:00:09.003Z,37.87
2018-02-18T23:06:13.557Z,31.90
2018-02-18T23:12:18.051Z,30.80
2018-02-18T23:18:22.564Z,31.30
2018-02-18T23:24:27.048Z,32.63
2018-02-18T23:30:31.529Z,30.03
2018-02-18T23:36:35.996Z,26.73
2018-02-18T23:42:40.469Z,24.37
2018-02-18T23:48:44.943Z,25.70
2018-02-18T23:54:50.349Z,28.70
